Time,TemperatureF,DewpointF,PressureIn,WindDirection,WindDirectionDegrees,WindSpeedMPH,WindSpeedGustMPH,Humidity,HourlyPrecipIn,Conditions,Clouds,dailyrainin,SoftwareType,DateUTC
2013-06-07 00:02:00,57.0,44.0,30.04,NNW,336,0.0,0.0,62,0.00,,,0.00,,2013-06-07 06:02:00,
2013-06-07 00:12:00,57.0,44.0,30.04,NNW,336,0.0,0.0,62,0.00,,,0.00,,2013-06-07 06:12:00,
2013-06-07 00:21:00,55.0,44.0,30.04,NNW,336,4.0,6.0,67,0.00,,,0.00,,2013-06-07 06:21:00,
2013-06-07 00:32:00,56.0,44.0,30.04,NNW,342,3.0,7.0,65,0.00,,,0.00,,2013-06-07 06:32:00,
2013-06-07 00:42:00,56.0,44.0,30.04,NNW,342,3.0,7.0,65,0.00,,,0.00,,2013-06-07 06:42:00,
2013-06-07 00:52:00,55.0,44.0,30.04,NNW,342,6.0,7.0,67,0.00,,,0.00,,2013-06-07 06:52:00,
2013-06-07 01:02:00,55.0,45.0,30.04,NNW,342,4.0,7.0,69,0.00,,,0.00,,2013-06-07 07:02:00,
2013-06-07 01:12:00,55.0,45.0,30.04,NNW,342,4.0,7.0,69,0.00,,,0.00,,2013-06-07 07:12:00,
2013-06-07 01:22:00,52.0,44.0,30.03,NNW,344,5.0,6.0,73,0.00,,,0.00,,2013-06-07 07:22:00,
2013-06-07 01:32:00,50.0,43.0,30.03,NNW,344,0.0,5.0,77,0.00,,,0.00,,2013-06-07 07:32:00,
2013-06-07 01:42:00,50.0,43.0,30.03,NNW,344,0.0,5.0,77,0.00,,,0.00,,2013-06-07 07:42:00,
2013-06-07 01:52:00,50.0,43.0,30.02,NNW,344,0.0,0.0,78,0.00,,,0.00,,2013-06-07 07:52:00,
2013-06-07 02:02:00,50.0,44.0,30.02,NNW,344,4.0,6.0,79,0.00,,,0.00,,2013-06-07 08:02:00,
2013-06-07 02:22:00,50.0,44.0,30.02,NNW,344,0.0,7.0,79,0.00,,,0.00,,2013-06-07 08:22:00,
2013-06-07 02:32:00,48.0,42.0,30.02,NNW,344,0.0,0.0,81,0.00,,,0.00,,2013-06-07 08:32:00,
2013-06-07 02:42:00,48.0,42.0,30.02,NNW,344,0.0,0.0,81,0.00,,,0.00,,2013-06-07 08:42:00,
2013-06-07 02:52:00,49.0,44.0,30.01,NNW,343,0.0,0.0,82,0.00,,,0.00,,2013-06-07 08:52:00,
2013-06-07 03:01:00,49.0,43.0,30.01,NNW,344,5.0,6.0,79,0.00,,,0.00,,2013-06-07 09:01:00,
2013-06-07 03:11:00,49.0,43.0,30.01,NNW,344,5.0,6.0,79,0.00,,,0.00,,2013-06-07 09:11:00,
2013-06-07 03:22:00,52.0,45.0,30.01,NNW,338,6.0,8.0,76,0.00,,,0.00,,2013-06-07 09:22:00,
2013-06-07 03:32:00,48.0,42.0,30.01,NNW,338,5.0,6.0,80,0.00,,,0.00,,2013-06-07 09:32:00,
2013-06-07 03:43:00,48.0,42.0,30.01,NNW,338,5.0,6.0,80,0.00,,,0.00,,2013-06-07 09:43:00,
2013-06-07 03:53:00,47.0,42.0,30.01,NNW,338,5.0,6.0,83,0.00,,,0.00,,2013-06-07 09:53:00,
2013-06-07 04:02:00,47.0,42.0,30.01,NNW,338,0.0,4.0,82,0.00,,,0.00,,2013-06-07 10:02:00,
2013-06-07 04:22:00,48.0,43.0,30.01,NNW,338,0.0,0.0,83,0.00,,,0.00,,2013-06-07 10:22:00,
2013-06-07 04:32:00,49.0,43.0,30.00,NNW,338,0.0,0.0,79,0.00,,,0.00,,2013-06-07 10:32:00,
2013-06-07 04:42:00,49.0,43.0,30.00,NNW,338,0.0,0.0,79,0.00,,,0.00,,2013-06-07 10:42:00,
2013-06-07 04:52:00,49.0,43.0,30.00,NNW,338,0.0,0.0,81,0.00,,,0.00,,2013-06-07 10:52:00,
2013-06-07 05:02:00,50.0,43.0,30.00,NNW,338,0.0,0.0,77,0.00,,,0.00,,2013-06-07 11:02:00,
2013-06-07 05:12:00,50.0,43.0,30.00,NNW,338,0.0,0.0,77,0.00,,,0.00,,2013-06-07 11:12:00,
2013-06-07 05:22:00,49.0,43.0,30.00,NNW,338,0.0,0.0,79,0.00,,,0.00,,2013-06-07 11:22:00,
2013-06-07 05:32:00,51.0,44.0,30.00,NNW,338,0.0,0.0,78,0.00,,,0.00,,2013-06-07 11:32:00,
2013-06-07 05:42:00,51.0,44.0,30.00,NNW,338,0.0,0.0,78,0.00,,,0.00,,2013-06-07 11:42:00,
2013-06-07 05:52:00,51.0,44.0,30.00,NNW,338,0.0,0.0,78,0.00,,,0.00,,2013-06-07 11:52:00,
2013-06-07 06:02:00,52.0,45.0,30.00,NNW,338,0.0,0.0,77,0.00,,,0.00,,2013-06-07 12:02:00,
2013-06-07 06:12:00,52.0,45.0,30.00,NNW,338,0.0,0.0,77,0.00,,,0.00,,2013-06-07 12:12:00,
2013-06-07 06:22:00,56.0,46.0,30.00,WNW,292,0.0,0.0,70,0.00,,,0.00,,2013-06-07 12:22:00,
2013-06-07 06:32:00,57.0,47.0,30.00,WNW,292,0.0,0.0,69,0.00,,,0.00,,2013-06-07 12:32:00,
2013-06-07 06:42:00,57.0,47.0,30.00,WNW,292,0.0,0.0,69,0.00,,,0.00,,2013-06-07 12:42:00,
2013-06-07 06:52:00,57.0,47.0,30.00,SSW,213,0.0,0.0,68,0.00,,,0.00,,2013-06-07 12:52:00,
2013-06-07 07:02:00,59.0,48.0,30.00,SSW,213,0.0,0.0,66,0.00,,,0.00,,2013-06-07 13:02:00,
2013-06-07 07:12:00,59.0,48.0,30.00,SSW,213,0.0,0.0,66,0.00,,,0.00,,2013-06-07 13:12:00,
2013-06-07 07:22:00,60.0,50.0,30.00,SSW,213,0.0,0.0,69,0.00,,,0.00,,2013-06-07 13:22:00,
2013-06-07 07:32:00,60.0,49.0,30.00,SSW,213,0.0,0.0,68,0.00,,,0.00,,2013-06-07 13:32:00,
2013-06-07 07:42:00,60.0,49.0,30.00,SSW,213,0.0,0.0,68,0.00,,,0.00,,2013-06-07 13:42:00,
2013-06-07 07:52:00,61.0,51.0,30.00,South,186,0.0,0.0,69,0.00,,,0.00,,2013-06-07 13:52:00,
2013-06-07 08:02:00,62.0,49.0,29.99,South,184,0.0,0.0,63,0.00,,,0.00,,2013-06-07 14:02:00,
2013-06-07 08:12:00,62.0,49.0,29.99,South,184,0.0,0.0,63,0.00,,,0.00,,2013-06-07 14:12:00,
2013-06-07 08:22:00,64.0,49.0,29.99,South,179,0.0,1.0,58,0.00,,,0.00,,2013-06-07 14:22:00,
2013-06-07 08:32:00,65.0,47.0,29.99,ESE,123,6.0,8.0,52,0.00,,,0.00,,2013-06-07 14:32:00,
2013-06-07 08:42:00,65.0,47.0,29.99,ESE,123,6.0,8.0,52,0.00,,,0.00,,2013-06-07 14:42:00,
2013-06-07 08:52:00,66.0,47.0,29.99,ESE,119,8.0,11.0,50,0.00,,,0.00,,2013-06-07 14:52:00,
2013-06-07 09:02:00,66.0,47.0,29.99,ESE,119,7.0,12.0,51,0.00,,,0.00,,2013-06-07 15:02:00,
2013-06-07 09:12:00,66.0,47.0,29.99,ESE,119,7.0,12.0,51,0.00,,,0.00,,2013-06-07 15:12:00,
2013-06-07 09:22:00,67.0,48.0,29.98,SE,134,7.0,12.0,50,0.00,,,0.00,,2013-06-07 15:22:00,
2013-06-07 09:33:00,67.0,48.0,29.98,SE,125,8.0,14.0,50,0.00,,,0.00,,2013-06-07 15:33:00,
2013-06-07 09:43:00,67.0,48.0,29.98,SE,125,8.0,14.0,50,0.00,,,0.00,,2013-06-07 15:43:00,
2013-06-07 09:53:00,69.0,48.0,29.97,ESE,114,8.0,13.0,48,0.00,,,0.00,,2013-06-07 15:53:00,
2013-06-07 10:03:00,69.0,48.0,29.96,SE,125,11.0,16.0,48,0.00,,,0.00,,2013-06-07 16:03:00,
2013-06-07 10:12:00,69.0,48.0,29.96,SE,125,11.0,16.0,48,0.00,,,0.00,,2013-06-07 16:12:00,
2013-06-07 10:22:00,70.0,46.0,29.96,SE,132,9.0,14.0,43,0.00,,,0.00,,2013-06-07 16:22:00,
2013-06-07 10:32:00,71.0,49.0,29.95,SE,137,9.0,15.0,45,0.00,,,0.00,,2013-06-07 16:32:00,
2013-06-07 10:42:00,71.0,49.0,29.95,SE,137,9.0,15.0,45,0.00,,,0.00,,2013-06-07 16:42:00,
2013-06-07 10:53:00,71.0,48.0,29.94,SE,132,9.0,12.0,44,0.00,,,0.00,,2013-06-07 16:53:00,
2013-06-07 11:02:00,72.0,48.0,29.94,SE,128,10.0,13.0,43,0.00,,,0.00,,2013-06-07 17:02:00,
2013-06-07 11:12:00,72.0,48.0,29.94,SE,128,10.0,13.0,43,0.00,,,0.00,,2013-06-07 17:12:00,
2013-06-07 11:22:00,72.0,47.0,29.93,ESE,121,8.0,12.0,41,0.00,,,0.00,,2013-06-07 17:22:00,
2013-06-07 11:32:00,73.0,47.0,29.92,ESE,109,6.0,11.0,40,0.00,,,0.00,,2013-06-07 17:32:00,
2013-06-07 11:42:00,73.0,47.0,29.92,ESE,109,6.0,11.0,40,0.00,,,0.00,,2013-06-07 17:42:00,
2013-06-07 11:52:00,74.0,47.0,29.92,ESE,121,8.0,10.0,39,0.00,,,0.00,,2013-06-07 17:52:00,
2013-06-07 12:02:00,75.0,48.0,29.92,ESE,120,4.0,13.0,38,0.00,,,0.00,,2013-06-07 18:02:00,
2013-06-07 12:12:00,75.0,48.0,29.92,ESE,120,4.0,13.0,38,0.00,,,0.00,,2013-06-07 18:12:00,
2013-06-07 12:22:00,75.0,45.0,29.91,SE,131,7.0,12.0,35,0.00,,,0.00,,2013-06-07 18:22:00,
2013-06-07 12:33:00,76.0,46.0,29.90,ESE,115,7.0,12.0,35,0.00,,,0.00,,2013-06-07 18:33:00,
2013-06-07 12:42:00,76.0,46.0,29.90,ESE,115,7.0,12.0,35,0.00,,,0.00,,2013-06-07 18:42:00,
2013-06-07 12:57:00,77.0,46.0,29.89,ENE,68,2.0,11.0,33,0.00,,,0.00,,2013-06-07 18:57:00,
2013-06-07 13:03:00,78.0,45.0,29.89,ESE,122,7.0,11.0,31,0.00,,,0.00,,2013-06-07 19:03:00,
2013-06-07 13:12:00,78.0,45.0,29.89,ESE,122,7.0,11.0,31,0.00,,,0.00,,2013-06-07 19:12:00,
2013-06-07 13:32:00,79.0,45.0,29.87,South,182,2.0,9.0,30,0.00,,,0.00,,2013-06-07 19:32:00,
2013-06-07 13:43:00,79.0,45.0,29.87,South,182,2.0,9.0,30,0.00,,,0.00,,2013-06-07 19:43:00,
2013-06-07 13:55:00,79.0,45.0,29.86,ESE,109,5.0,11.0,30,0.00,,,0.00,,2013-06-07 19:55:00,
2013-06-07 14:02:00,81.0,47.0,29.85,ENE,74,1.0,9.0,30,0.00,,,0.00,,2013-06-07 20:02:00,
2013-06-07 14:12:00,81.0,47.0,29.85,ENE,74,1.0,9.0,30,0.00,,,0.00,,2013-06-07 20:12:00,
2013-06-07 14:33:00,80.0,43.0,29.84,NNE,22,0.0,8.0,27,0.00,,,0.00,,2013-06-07 20:33:00,
2013-06-07 14:43:00,80.0,43.0,29.84,NNE,22,0.0,8.0,27,0.00,,,0.00,,2013-06-07 20:43:00,
2013-06-07 14:57:00,80.0,44.0,29.84,ESE,102,0.0,11.0,28,0.00,,,0.00,,2013-06-07 20:57:00,
2013-06-07 15:24:00,79.0,47.0,29.83,NE,36,0.0,1.0,32,0.00,,,0.00,,2013-06-07 21:24:00,
2013-06-07 15:33:00,79.0,43.0,29.83,ESE,107,3.0,9.0,28,0.00,,,0.00,,2013-06-07 21:33:00,
2013-06-07 15:43:00,79.0,43.0,29.83,ESE,107,3.0,9.0,28,0.00,,,0.00,,2013-06-07 21:43:00,
2013-06-07 15:57:00,78.0,50.0,29.82,SSE,161,5.0,14.0,38,0.00,,,0.00,,2013-06-07 21:57:00,
2013-06-07 16:24:00,81.0,45.0,29.81,NNW,328,3.0,7.0,28,0.00,,,0.00,,2013-06-07 22:24:00,
2013-06-07 16:33:00,81.0,45.0,29.80,ESE,109,6.0,8.0,28,0.00,,,0.00,,2013-06-07 22:33:00,
2013-06-07 16:43:00,81.0,45.0,29.80,ESE,109,6.0,8.0,28,0.00,,,0.00,,2013-06-07 22:43:00,
2013-06-07 16:57:00,80.0,46.0,29.80,ESE,117,0.0,7.0,30,0.00,,,0.00,,2013-06-07 22:57:00,
2013-06-07 17:24:00,80.0,43.0,29.79,NNW,328,2.0,11.0,27,0.00,,,0.00,,2013-06-07 23:24:00,
2013-06-07 17:58:00,79.0,45.0,29.78,NNW,338,7.0,12.0,30,0.00,,,0.00,,2013-06-07 23:58:00,
2013-06-07 18:13:00,79.0,45.0,29.78,NNW,340,6.0,8.0,30,0.00,,,0.00,,2013-06-08 00:13:00,
2013-06-07 18:24:00,79.0,44.0,29.77,NNW,342,1.0,6.0,29,0.00,,,0.00,,2013-06-08 00:24:00,
2013-06-07 18:32:00,78.0,47.0,29.77,NNW,340,6.0,7.0,33,0.00,,,0.00,,2013-06-08 00:32:00,
2013-06-07 18:43:00,78.0,47.0,29.77,NNW,340,6.0,7.0,33,0.00,,,0.00,,2013-06-08 00:43:00,
2013-06-07 18:56:00,78.0,47.0,29.76,NNW,345,4.0,7.0,33,0.00,,,0.00,,2013-06-08 00:56:00,
2013-06-07 19:02:00,78.0,47.0,29.76,North,351,0.0,1.0,34,0.00,,,0.00,,2013-06-08 01:02:00,
2013-06-07 19:12:00,78.0,47.0,29.76,North,351,0.0,1.0,34,0.00,,,0.00,,2013-06-08 01:12:00,
2013-06-07 19:23:00,78.0,50.0,29.75,East,86,4.0,13.0,37,0.00,,,0.00,,2013-06-08 01:23:00,
2013-06-07 19:42:00,77.0,49.0,29.75,ESE,106,7.0,10.0,37,0.00,,,0.00,,2013-06-08 01:42:00,
2013-06-07 19:58:00,76.0,48.0,29.75,ESE,106,2.0,8.0,37,0.00,,,0.00,,2013-06-08 01:58:00,
2013-06-07 20:12:00,75.0,48.0,29.75,ESE,107,5.0,7.0,39,0.00,,,0.00,,2013-06-08 02:12:00,
2013-06-07 20:23:00,75.0,48.0,29.75,ESE,108,4.0,6.0,38,0.00,,,0.00,,2013-06-08 02:23:00,
2013-06-07 20:32:00,74.0,47.0,29.75,ESE,108,0.0,1.0,39,0.00,,,0.00,,2013-06-08 02:32:00,
2013-06-07 20:43:00,74.0,47.0,29.75,ESE,108,0.0,1.0,39,0.00,,,0.00,,2013-06-08 02:43:00,
2013-06-07 20:55:00,74.0,47.0,29.74,ESE,108,0.0,0.0,39,0.00,,,0.00,,2013-06-08 02:55:00,
2013-06-07 21:03:00,74.0,47.0,29.73,ESE,108,0.0,1.0,39,0.00,,,0.00,,2013-06-08 03:03:00,
2013-06-07 21:12:00,74.0,47.0,29.73,ESE,108,0.0,1.0,39,0.00,,,0.00,,2013-06-08 03:12:00,
2013-06-07 21:24:00,74.0,47.0,29.73,ESE,108,0.0,1.0,38,0.00,,,0.00,,2013-06-08 03:24:00,
2013-06-07 21:33:00,73.0,48.0,29.73,ESE,108,0.0,0.0,41,0.00,,,0.00,,2013-06-08 03:33:00,
2013-06-07 21:45:00,73.0,48.0,29.73,ESE,108,0.0,0.0,41,0.00,,,0.00,,2013-06-08 03:45:00,
2013-06-07 21:57:00,71.0,47.0,29.72,East,87,0.0,1.0,43,0.00,,,0.00,,2013-06-08 03:57:00,
2013-06-07 22:03:00,69.0,47.0,29.72,NNW,345,0.0,7.0,45,0.00,,,0.00,,2013-06-08 04:03:00,
2013-06-07 22:12:00,69.0,47.0,29.72,NNW,345,0.0,7.0,45,0.00,,,0.00,,2013-06-08 04:12:00,
2013-06-07 22:22:00,69.0,46.0,29.70,North,351,5.0,6.0,43,0.00,,,0.00,,2013-06-08 04:22:00,
2013-06-07 22:33:00,71.0,47.0,29.74,WNW,295,12.0,16.0,42,0.00,,,0.00,,2013-06-08 04:33:00,
2013-06-07 22:42:00,71.0,47.0,29.74,WNW,295,12.0,16.0,42,0.00,,,0.00,,2013-06-08 04:42:00,
2013-06-07 22:53:00,68.0,49.0,29.73,NW,325,10.0,25.0,51,0.00,,,0.00,,2013-06-08 04:53:00,
2013-06-07 23:02:00,68.0,49.0,29.75,NNW,340,11.0,18.0,50,0.00,,,0.00,,2013-06-08 05:02:00,
2013-06-07 23:12:00,68.0,49.0,29.75,NNW,340,11.0,18.0,50,0.00,,,0.00,,2013-06-08 05:12:00,
2013-06-07 23:22:00,67.0,50.0,29.75,NW,311,11.0,14.0,55,0.00,,,0.00,,2013-06-08 05:22:00,
2013-06-07 23:32:00,66.0,50.0,29.76,NW,322,12.0,16.0,56,0.00,,,0.00,,2013-06-08 05:32:00,
2013-06-07 23:42:00,66.0,50.0,29.76,NW,322,12.0,16.0,56,0.00,,,0.00,,2013-06-08 05:42:00,
2013-06-07 23:52:00,66.0,49.0,29.78,NNW,340,16.0,25.0,55,0.00,,,0.00,,2013-06-08 05:52:00,